Welcome to Northern Hawkes Bay. New Zealand.
PWS Header
      nz Flag



Hit Counter


W3C Valid W3C Valid logo


    Wairoa

Select any of the Stations below to visit their websites.










Historic Data from Weather Underground
Select the location of interest below. Wairoa is the default. Please have patience, this Data is slow to load in.
Northern Hawkes Bay Historical Data
Daily Summary for September 21, 2017 Units:  Metric    English   Both
« Previous Day
Next Day »
Daily Weekly Monthly Yearly Custom
  High: Low: Average:
Temperature: 18.6 °C 5.1 °C 12.2 °C
Dew Point: 12.1 °C 4.9 °C 9.1 °C
Humidity: 99% 55% 82%
Wind Speed: 15.8km/h 0.0km/h 4.9km/h
Wind Gust: 24.5km/h - -
Wind- - South
Pressure: 1010.7 hPa 1005.0 hPa -
Precipitation: 0.3 mm    
Historical Graphs
 
 
Tabular Data for September 21, 2017
Time Temperature Dew Point Pressure Wind Wind Speed Wind Gust Humidity Rainfall Rate (Hourly) solar
00:01 7.5 °C 7.1 °C 1010.7 hPa NE 1.1 km/h 2.6 km/h 97% 0.0 mm 0 W/m2
00:06 7.5 °C 7.1 °C 1010.4 hPa NE 1.1 km/h 3.5 km/h 97% 0.0 mm 0 W/m2
00:11 7.6 °C 7.2 °C 1010.7 hPa North 3.5 km/h 5.0 km/h 97% 0.0 mm 0 W/m2
00:16 7.7 °C 7.3 °C 1010.7 hPa NNW 1.1 km/h 6.1 km/h 97% 0.0 mm 0 W/m2
00:21 7.7 °C 7.3 °C 1010.4 hPa Calm   6.1 km/h 97% 0.0 mm 0 W/m2
00:26 7.7 °C 7.3 °C 1010.4 hPa North 1.1 km/h 3.5 km/h 97% 0.0 mm 0 W/m2
00:31 7.7 °C 7.3 °C 1010.4 hPa Calm   3.5 km/h 97% 0.0 mm 0 W/m2
00:36 7.6 °C 7.2 °C 1010.4 hPa Calm   3.5 km/h 97% 0.0 mm 0 W/m2
00:41 7.7 °C 7.3 °C 1010.4 hPa Calm   2.6 km/h 97% 0.0 mm 0 W/m2
00:46 7.6 °C 7.2 °C 1010.4 hPa North 1.1 km/h 2.6 km/h 97% 0.0 mm 0 W/m2
00:56 7.7 °C 7.3 °C 1010.4 hPa NNW 2.6 km/h 3.5 km/h 97% 0.0 mm 0 W/m2
01:01 7.7 °C 7.3 °C 1010.0 hPa NNW 3.5 km/h 6.1 km/h 97% 0.0 mm 0 W/m2
01:06 7.7 °C 7.3 °C 1010.4 hPa NNW 5.0 km/h 6.1 km/h 97% 0.0 mm 0 W/m2
01:11 7.7 °C 7.3 °C 1010.4 hPa NNW 2.6 km/h 7.2 km/h 97% 0.0 mm 0 W/m2
01:16 7.7 °C 7.3 °C 1010.4 hPa NNW 2.6 km/h 7.2 km/h 97% 0.0 mm 0 W/m2
01:21 7.7 °C 7.3 °C 1010.0 hPa NNW 3.5 km/h 5.0 km/h 97% 0.0 mm 0 W/m2
01:26 7.6 °C 7.2 °C 1010.0 hPa NNW 2.6 km/h 5.0 km/h 97% 0.0 mm 0 W/m2
01:31 7.5 °C 7.1 °C 1010.0 hPa NNW 5.0 km/h 6.1 km/h 97% 0.0 mm 0 W/m2
01:36 7.5 °C 7.1 °C 1010.0 hPa NNW 3.5 km/h 8.7 km/h 97% 0.0 mm 0 W/m2
01:41 7.5 °C 7.1 °C 1010.0 hPa North 5.0 km/h 8.7 km/h 97% 0.0 mm 0 W/m2
01:46 7.5 °C 7.1 °C 1010.0 hPa North 3.5 km/h 8.7 km/h 97% 0.0 mm 0 W/m2
01:51 7.4 °C 6.9 °C 1010.0 hPa North 6.1 km/h 8.7 km/h 97% 0.0 mm 0 W/m2
01:56 7.4 °C 6.9 °C 1009.7 hPa NNE 3.5 km/h 8.7 km/h 97% 0.0 mm 0 W/m2
02:01 7.3 °C 6.8 °C 1009.7 hPa NNE 2.6 km/h 7.2 km/h 97% 0.0 mm 0 W/m2
02:06 7.2 °C 6.8 °C 1009.7 hPa NNE 5.0 km/h 7.2 km/h 97% 0.0 mm 0 W/m2
02:11 7.2 °C 6.8 °C 1009.7 hPa NNE 2.6 km/h 7.2 km/h 97% 0.0 mm 0 W/m2
02:16 7.2 °C 6.8 °C 1009.7 hPa North 3.5 km/h 6.1 km/h 97% 0.0 mm 0 W/m2
02:21 7.1 °C 6.7 °C 1009.7 hPa North 1.1 km/h 6.1 km/h 97% 0.0 mm 0 W/m2
02:26 7.0 °C 6.6 °C 1009.4 hPa North 6.1 km/h 7.2 km/h 97% 0.0 mm 0 W/m2
02:31 7.0 °C 6.6 °C 1009.4 hPa North 3.5 km/h 7.2 km/h 97% 0.0 mm 0 W/m2
02:36 7.0 °C 6.6 °C 1009.4 hPa NNW 5.0 km/h 8.7 km/h 97% 0.0 mm 0 W/m2
02:54 6.8 °C 6.5 °C 1009.4 hPa NNW 5.0 km/h 9.7 km/h 98% 0.0 mm 0 W/m2
02:59 6.7 °C 6.4 °C 1009.7 hPa NW 5.0 km/h 8.7 km/h 98% 0.0 mm 0 W/m2
03:09 6.6 °C 6.3 °C 1009.4 hPa NNW 5.0 km/h 8.7 km/h 98% 0.0 mm 0 W/m2
03:14 6.5 °C 6.2 °C 1009.4 hPa NNW 6.1 km/h 9.7 km/h 98% 0.0 mm 0 W/m2
03:19 6.7 °C 6.4 °C 1009.4 hPa NNW 5.0 km/h 11.1 km/h 98% 0.0 mm 0 W/m2
03:24 6.2 °C 5.9 °C 1009.4 hPa NNW 2.6 km/h 11.1 km/h 98% 0.0 mm 0 W/m2
03:29 6.2 °C 5.9 °C 1009.4 hPa North 3.5 km/h 7.2 km/h 98% 0.0 mm 0 W/m2
03:34 6.2 °C 5.9 °C 1009.4 hPa NNW 5.0 km/h 7.2 km/h 98% 0.0 mm 0 W/m2
03:39 6.2 °C 5.9 °C 1009.4 hPa NNW 6.1 km/h 8.7 km/h 98% 0.0 mm 0 W/m2
03:44 6.2 °C 5.9 °C 1009.4 hPa NNW 3.5 km/h 8.7 km/h 98% 0.0 mm 0 W/m2
03:49 6.1 °C 5.8 °C 1009.4 hPa NNW 3.5 km/h 7.2 km/h 98% 0.0 mm 0 W/m2
03:54 6.0 °C 5.7 °C 1009.4 hPa NNW 6.1 km/h 8.7 km/h 98% 0.0 mm 0 W/m2
03:59 6.1 °C 5.8 °C 1009.4 hPa NW 7.2 km/h 13.4 km/h 98% 0.0 mm 0 W/m2
04:04 6.1 °C 5.8 °C 1009.4 hPa NW 7.2 km/h 13.4 km/h 98% 0.0 mm 0 W/m2
04:23 5.9 °C 5.8 °C 1009.4 hPa NNW 2.6 km/h 7.2 km/h 99% 0.0 mm 0 W/m2
04:28 6.0 °C 5.7 °C 1009.4 hPa NW 5.0 km/h 8.7 km/h 98% 0.0 mm 0 W/m2
04:33 5.9 °C 5.8 °C 1009.4 hPa NW 7.2 km/h 11.1 km/h 99% 0.0 mm 0 W/m2
04:38 5.8 °C 5.7 °C 1009.4 hPa NW 9.7 km/h 11.1 km/h 99% 0.0 mm 0 W/m2
04:43 6.0 °C 5.7 °C 1009.4 hPa NNW 6.1 km/h 11.1 km/h 98% 0.0 mm 0 W/m2
04:48 5.8 °C 5.7 °C 1009.4 hPa NNW 5.0 km/h 11.1 km/h 99% 0.0 mm 0 W/m2
04:53 5.8 °C 5.7 °C 1009.4 hPa NNW 3.5 km/h 8.7 km/h 99% 0.0 mm 0 W/m2
04:58 5.8 °C 5.7 °C 1009.4 hPa NNW 6.1 km/h 8.7 km/h 99% 0.0 mm 0 W/m2
05:03 6.2 °C 5.9 °C 1009.4 hPa NNW 7.2 km/h 12.2 km/h 98% 0.0 mm 0 W/m2
05:08 6.0 °C 5.7 °C 1009.7 hPa NNW 7.2 km/h 12.2 km/h 98% 0.0 mm 0 W/m2
05:13 6.1 °C 5.8 °C 1009.4 hPa NNW 6.1 km/h 12.2 km/h 98% 0.0 mm 0 W/m2
05:18 5.9 °C 5.8 °C 1009.7 hPa NNW 3.5 km/h 11.1 km/h 99% 0.0 mm 0 W/m2
05:23 5.8 °C 5.7 °C 1009.7 hPa NNW 2.6 km/h 8.7 km/h 99% 0.0 mm 0 W/m2
05:28 5.4 °C 5.3 °C 1009.7 hPa NNW 3.5 km/h 6.1 km/h 99% 0.0 mm 0 W/m2
05:33 5.4 °C 5.3 °C 1009.7 hPa North 2.6 km/h 5.0 km/h 99% 0.0 mm 0 W/m2
05:38 5.3 °C 5.2 °C 1009.7 hPa NNW 3.5 km/h 6.1 km/h 99% 0.0 mm 0 W/m2
05:55 5.1 °C 4.9 °C 1009.7 hPa NNW 3.5 km/h 7.2 km/h 99% 0.0 mm 0 W/m2
06:00 5.4 °C 5.3 °C 1009.7 hPa NNW 1.1 km/h 6.1 km/h 99% 0.0 mm 0 W/m2
06:05 5.5 °C 5.3 °C 1009.7 hPa Calm   7.2 km/h 99% 0.0 mm 1 W/m2
06:10 5.6 °C 5.4 °C 1009.7 hPa Calm   7.2 km/h 99% 0.0 mm 5 W/m2
06:16 5.7 °C 5.6 °C 1009.7 hPa NNW 5.0 km/h 8.7 km/h 99% 0.0 mm 11 W/m2
06:21 5.9 °C 5.8 °C 1009.4 hPa NNW 3.5 km/h 8.7 km/h 99% 0.0 mm 17 W/m2
06:26 6.0 °C 5.7 °C 1009.7 hPa NW 6.1 km/h 8.7 km/h 98% 0.0 mm 20 W/m2
06:31 6.0 °C 5.7 °C 1009.7 hPa NW 5.0 km/h 8.7 km/h 98% 0.0 mm 45 W/m2
06:36 6.3 °C 6.0 °C 1009.7 hPa NW 6.1 km/h 11.1 km/h 98% 0.0 mm 62 W/m2
06:41 6.6 °C 6.3 °C 1009.7 hPa NW 5.0 km/h 12.2 km/h 98% 0.0 mm 78 W/m2
06:46 6.8 °C 6.5 °C 1009.7 hPa NW 3.5 km/h 12.2 km/h 98% 0.0 mm 91 W/m2
06:51 7.3 °C 6.8 °C 1009.7 hPa North 3.5 km/h 8.7 km/h 97% 0.0 mm 96 W/m2
06:56 7.8 °C 7.3 °C 1009.7 hPa NNE 3.5 km/h 6.1 km/h 97% 0.0 mm 72 W/m2
07:01 7.6 °C 7.2 °C 1009.7 hPa North 3.5 km/h 6.1 km/h 97% 0.0 mm 81 W/m2
07:06 7.5 °C 7.1 °C 1009.7 hPa NNW 5.0 km/h 7.2 km/h 97% 0.0 mm 48 W/m2
07:11 7.4 °C 6.9 °C 1009.7 hPa NW 5.0 km/h 9.7 km/h 97% 0.0 mm 71 W/m2
07:16 7.5 °C 7.1 °C 1009.7 hPa NW 5.0 km/h 9.7 km/h 97% 0.0 mm 54 W/m2
07:21 7.6 °C 7.2 °C 1009.7 hPa NW 2.6 km/h 8.7 km/h 97% 0.0 mm 110 W/m2
07:26 8.2 °C 8.1 °C 1009.7 hPa NNW 3.5 km/h 7.2 km/h 99% 0.0 mm 217 W/m2
07:31 8.7 °C 8.6 °C 1010.0 hPa NNW 6.1 km/h 8.7 km/h 99% 0.0 mm 94 W/m2
07:36 9.2 °C 8.8 °C 1009.7 hPa North 1.1 km/h 8.7 km/h 97% 0.0 mm 229 W/m2
07:41 9.8 °C 9.2 °C 1010.0 hPa North 5.0 km/h 8.7 km/h 96% 0.0 mm 82 W/m2
07:46 9.5 °C 8.6 °C 1010.0 hPa NNW 5.0 km/h 11.1 km/h 94% 0.0 mm 84 W/m2
07:51 9.2 °C 7.9 °C 1010.0 hPa NW 6.1 km/h 11.1 km/h 92% 0.0 mm 87 W/m2
07:56 9.0 °C 7.8 °C 1010.0 hPa NW 3.5 km/h 9.7 km/h 92% 0.0 mm 88 W/m2
08:01 9.0 °C 7.9 °C 1010.0 hPa NW 5.0 km/h 7.2 km/h 93% 0.0 mm 102 W/m2
08:06 9.1 °C 8.1 °C 1009.7 hPa NNW 6.1 km/h 7.2 km/h 93% 0.0 mm 194 W/m2
08:11 9.5 °C 8.4 °C 1010.0 hPa NW 5.0 km/h 8.7 km/h 93% 0.0 mm 136 W/m2
08:16 9.9 °C 8.8 °C 1010.0 hPa NNW 5.0 km/h 8.7 km/h 93% 0.0 mm 123 W/m2
08:21 10.2 °C 8.9 °C 1010.0 hPa NNW 5.0 km/h 7.2 km/h 92% 0.0 mm 128 W/m2
08:26 10.3 °C 8.9 °C 1009.7 hPa NNW 6.1 km/h 9.7 km/h 91% 0.0 mm 141 W/m2
08:31 10.4 °C 9.0 °C 1009.7 hPa NW 3.5 km/h 9.7 km/h 91% 0.0 mm 135 W/m2
08:36 10.6 °C 9.2 °C 1009.7 hPa NW 5.0 km/h 9.7 km/h 91% 0.0 mm 138 W/m2
08:41 10.8 °C 9.6 °C 1009.7 hPa NW 2.6 km/h 7.2 km/h 92% 0.0 mm 168 W/m2
08:46 11.2 °C 9.8 °C 1009.7 hPa NW 1.1 km/h 7.2 km/h 91% 0.0 mm 175 W/m2
08:51 11.5 °C 10.1 °C 1009.7 hPa NW 2.6 km/h 6.1 km/h 91% 0.0 mm 150 W/m2
08:56 11.6 °C 9.8 °C 1010.0 hPa NW 5.0 km/h 6.1 km/h 89% 0.0 mm 132 W/m2
09:01 11.5 °C 9.6 °C 1009.7 hPa NNW 2.6 km/h 7.2 km/h 88% 0.0 mm 151 W/m2
09:06 11.8 °C 9.9 °C 1009.7 hPa NW 3.5 km/h 7.2 km/h 88% 0.0 mm 193 W/m2
09:11 12.5 °C 10.2 °C 1010.0 hPa NW 2.6 km/h 6.1 km/h 86% 0.0 mm 202 W/m2
09:16 14.4 °C 12.1 °C 1009.7 hPa NW 2.6 km/h 6.1 km/h 86% 0.0 mm 411 W/m2
09:21 15.3 °C 11.7 °C 1010.0 hPa NW 1.1 km/h 6.1 km/h 79% 0.0 mm 218 W/m2
09:26 15.5 °C 11.5 °C 1010.0 hPa Calm   6.1 km/h 77% 0.0 mm 196 W/m2
09:31 15.2 °C 10.6 °C 1009.7 hPa NNW 3.5 km/h 6.1 km/h 74% 0.0 mm 229 W/m2
09:36 15.2 °C 10.6 °C 1009.4 hPa NNW 1.1 km/h 6.1 km/h 74% 0.0 mm 209 W/m2
09:41 15.6 °C 11.2 °C 1009.4 hPa Calm   5.0 km/h 75% 0.0 mm 281 W/m2
09:47 16.2 °C 10.5 °C 1009.4 hPa NE 11.1 km/h 15.8 km/h 69% 0.0 mm 248 W/m2
09:52 16.2 °C 10.3 °C 1009.7 hPa NE 9.7 km/h 15.8 km/h 68% 0.0 mm 216 W/m2
09:57 16.1 °C 10.2 °C 1009.4 hPa NE 7.2 km/h 15.8 km/h 68% 0.0 mm 170 W/m2
10:02 15.9 °C 10.2 °C 1009.4 hPa NE 5.0 km/h 15.8 km/h 69% 0.0 mm 133 W/m2
10:07 15.8 °C 10.1 °C 1009.4 hPa NE 5.0 km/h 11.1 km/h 69% 0.0 mm 137 W/m2
10:12 15.7 °C 10.1 °C 1009.4 hPa NE 5.0 km/h 12.2 km/h 69% 0.0 mm 150 W/m2
10:17 15.8 °C 10.3 °C 1009.4 hPa NE 3.5 km/h 12.2 km/h 70% 0.0 mm 189 W/m2
10:22 16.1 °C 10.4 °C 1009.4 hPa ENE 6.1 km/h 12.2 km/h 69% 0.0 mm 273 W/m2
10:27 17.2 °C 10.8 °C 1009.0 hPa ENE 5.0 km/h 13.4 km/h 66% 0.0 mm 494 W/m2
10:32 17.8 °C 10.7 °C 1009.0 hPa NE 8.7 km/h 17.2 km/h 63% 0.0 mm 167 W/m2
10:37 17.8 °C 10.4 °C 1009.4 hPa NE 8.7 km/h 17.2 km/h 62% 0.0 mm 493 W/m2
10:42 18.2 °C 11.1 °C 1009.0 hPa ENE 9.7 km/h 14.8 km/h 63% 0.0 mm 367 W/m2
11:01 17.9 °C 10.5 °C 1009.0 hPa ENE 2.6 km/h 14.8 km/h 62% 0.0 mm 185 W/m2
11:06 17.9 °C 10.5 °C 1008.7 hPa NE 6.1 km/h 13.4 km/h 62% 0.0 mm 237 W/m2
11:11 18.2 °C 10.6 °C 1009.0 hPa NNE 3.5 km/h 13.4 km/h 61% 0.0 mm 312 W/m2
11:16 18.4 °C 10.8 °C 1009.0 hPa North 9.7 km/h 14.8 km/h 61% 0.0 mm 303 W/m2
11:21 18.1 °C 10.2 °C 1008.7 hPa North 8.7 km/h 14.8 km/h 60% 0.0 mm 340 W/m2
11:26 18.5 °C 10.3 °C 1008.7 hPa North 8.7 km/h 14.8 km/h 59% 0.0 mm 509 W/m2
11:31 18.6 °C 10.2 °C 1008.7 hPa NNE 9.7 km/h 17.2 km/h 58% 0.0 mm 264 W/m2
11:36 18.2 °C 9.6 °C 1008.7 hPa NNE 3.5 km/h 17.2 km/h 57% 0.0 mm 287 W/m2
11:41 18.6 °C 10.4 °C 1008.7 hPa NNE 7.2 km/h 17.2 km/h 59% 0.0 mm 250 W/m2
11:46 18.6 °C 9.7 °C 1008.4 hPa NNE 6.1 km/h 17.2 km/h 56% 0.0 mm 233 W/m2
11:51 18.6 °C 9.7 °C 1008.7 hPa NE 6.1 km/h 23.3 km/h 56% 0.0 mm 218 W/m2
11:56 18.1 °C 8.9 °C 1008.4 hPa NNE 9.7 km/h 23.3 km/h 55% 0.0 mm 217 W/m2
12:01 17.9 °C 8.7 °C 1008.4 hPa NNW 9.7 km/h 21.9 km/h 55% 0.0 mm 177 W/m2
12:06 17.7 °C 9.1 °C 1008.4 hPa North 12.2 km/h 24.5 km/h 57% 0.0 mm 160 W/m2
12:11 17.6 °C 9.2 °C 1008.4 hPa NNE 9.7 km/h 24.5 km/h 58% 0.0 mm 94 W/m2
12:16 17.2 °C 9.4 °C 1008.4 hPa North 15.8 km/h 23.3 km/h 60% 0.0 mm 79 W/m2
12:21 16.9 °C 9.3 °C 1008.4 hPa North 13.4 km/h 23.3 km/h 61% 0.0 mm 92 W/m2
12:26 16.8 °C 9.5 °C 1008.4 hPa North 7.2 km/h 23.3 km/h 62% 0.0 mm 86 W/m2
12:31 16.9 °C 9.6 °C 1008.4 hPa NNW 2.6 km/h 18.3 km/h 62% 0.0 mm 106 W/m2
12:36 16.8 °C 9.7 °C 1008.4 hPa NNW 6.1 km/h 17.2 km/h 63% 0.0 mm 133 W/m2
12:41 16.6 °C 9.6 °C 1008.0 hPa North 7.2 km/h 13.4 km/h 63% 0.0 mm 105 W/m2
12:46 16.6 °C 9.8 °C 1008.0 hPa NNE 2.6 km/h 13.4 km/h 64% 0.0 mm 146 W/m2
12:51 16.9 °C 10.5 °C 1008.0 hPa NNE 8.7 km/h 12.2 km/h 66% 0.0 mm 189 W/m2
12:56 16.6 °C 10.4 °C 1007.7 hPa North 1.1 km/h 12.2 km/h 67% 0.0 mm 175 W/m2
13:01 16.6 °C 10.0 °C 1007.7 hPa NNE 5.0 km/h 14.8 km/h 65% 0.0 mm 149 W/m2
13:06 16.6 °C 10.0 °C 1007.7 hPa NNE 5.0 km/h 14.8 km/h 65% 0.0 mm 153 W/m2
13:11 17.0 °C 10.6 °C 1007.3 hPa NNE 6.1 km/h 12.2 km/h 66% 0.0 mm 168 W/m2
13:16 16.6 °C 10.0 °C 1007.7 hPa NNE 7.2 km/h 15.8 km/h 65% 0.0 mm 188 W/m2
13:21 16.8 °C 10.4 °C 1007.3 hPa NNE 3.5 km/h 15.8 km/h 66% 0.0 mm 311 W/m2
13:26 17.5 °C 10.8 °C 1007.3 hPa North 7.2 km/h 15.8 km/h 65% 0.0 mm 215 W/m2
13:31 16.9 °C 9.8 °C 1007.3 hPa North 5.0 km/h 13.4 km/h 63% 0.0 mm 181 W/m2
13:36 17.1 °C 9.8 °C 1007.3 hPa NNE 5.0 km/h 13.4 km/h 62% 0.0 mm 155 W/m2
13:41 17.1 °C 10.0 °C 1007.0 hPa NE 2.6 km/h 11.1 km/h 63% 0.0 mm 156 W/m2
13:46 17.3 °C 9.9 °C 1007.0 hPa NE 3.5 km/h 8.7 km/h 62% 0.0 mm 159 W/m2
13:51 17.4 °C 10.3 °C 1007.0 hPa NE 3.5 km/h 11.1 km/h 63% 0.0 mm 196 W/m2
13:56 17.5 °C 10.2 °C 1007.0 hPa NE 5.0 km/h 12.2 km/h 62% 0.0 mm 368 W/m2
14:01 18.0 °C 11.1 °C 1007.0 hPa ENE 5.0 km/h 12.2 km/h 64% 0.0 mm 296 W/m2
14:02 18.0 °C 10.8 °C 1007.0 hPa ENE 7.2 km/h 12.2 km/h 63% 0.0 mm 298 W/m2
14:07 18.2 °C 10.3 °C 1007.0 hPa ENE 8.7 km/h 12.2 km/h 60% 0.0 mm 234 W/m2
14:12 17.7 °C 10.3 °C 1007.0 hPa ENE 7.2 km/h 13.4 km/h 62% 0.0 mm 154 W/m2
14:17 17.3 °C 10.2 °C 1006.7 hPa NE 8.7 km/h 17.2 km/h 63% 0.0 mm 114 W/m2
14:22 16.9 °C 10.3 °C 1006.7 hPa NE 5.0 km/h 17.2 km/h 65% 0.0 mm 85 W/m2
14:27 17.0 °C 9.9 °C 1006.7 hPa NE 5.0 km/h 15.8 km/h 63% 0.0 mm 76 W/m2
14:32 16.6 °C 10.0 °C 1006.7 hPa NE 8.7 km/h 12.2 km/h 65% 0.0 mm 40 W/m2
14:37 16.5 °C 9.7 °C 1006.7 hPa NNE 6.1 km/h 12.2 km/h 64% 0.0 mm 45 W/m2
14:42 16.4 °C 9.6 °C 1006.7 hPa NE 2.6 km/h 12.2 km/h 64% 0.0 mm 37 W/m2
14:47 16.3 °C 10.2 °C 1006.7 hPa NE 1.1 km/h 9.7 km/h 67% 0.0 mm 36 W/m2
14:52 16.0 °C 10.1 °C 1006.7 hPa NE 2.6 km/h 13.4 km/h 68% 0.0 mm 47 W/m2
14:57 15.9 °C 10.4 °C 1006.7 hPa NE 2.6 km/h 14.8 km/h 70% 0.0 mm 42 W/m2
15:02 15.7 °C 10.4 °C 1006.7 hPa NE 6.1 km/h 14.8 km/h 71% 0.0 mm 44 W/m2
15:07 15.2 °C 10.4 °C 1006.7 hPa NNE 3.5 km/h 14.8 km/h 73% 0.0 mm 49 W/m2
15:16 15.0 °C 10.8 °C 1006.7 hPa NNE 7.2 km/h 18.3 km/h 76% 0.3 mm 79 W/m2
15:20 15.1 °C 11.1 °C 1006.7 hPa NNE 3.5 km/h 18.3 km/h 77% 0.3 mm 101 W/m2
15:30 15.1 °C 11.5 °C 1006.7 hPa NNW 3.5 km/h 12.2 km/h 79% 0.3 mm 85 W/m2
15:33 15.1 °C 11.7 °C 1006.7 hPa NNW 7.2 km/h 13.4 km/h 80% 0.3 mm 182 W/m2
15:38 15.2 °C 11.2 °C 1006.3 hPa North 3.5 km/h 17.2 km/h 77% 0.3 mm 196 W/m2
15:39 15.2 °C 11.2 °C 1006.3 hPa North 7.2 km/h 17.2 km/h 77% 0.3 mm 186 W/m2
15:54 15.8 °C 11.0 °C 1006.3 hPa NNE 5.0 km/h 15.8 km/h 73% 0.3 mm 95 W/m2
15:59 15.7 °C 10.4 °C 1006.0 hPa NE 2.6 km/h 15.8 km/h 71% 0.3 mm 87 W/m2
16:04 15.6 °C 10.8 °C 1006.0 hPa NE 7.2 km/h 13.4 km/h 73% 0.3 mm 85 W/m2
16:09 15.8 °C 11.0 °C 1005.6 hPa NE 3.5 km/h 11.1 km/h 73% 0.3 mm 141 W/m2
16:14 16.4 °C 11.6 °C 1006.0 hPa NE 6.1 km/h 11.1 km/h 73% 0.0 mm 104 W/m2
16:19 16.3 °C 11.1 °C 1006.0 hPa ENE 7.2 km/h 13.4 km/h 71% 0.0 mm 74 W/m2
16:24 15.6 °C 10.8 °C 1006.0 hPa NE 8.7 km/h 17.2 km/h 73% 0.0 mm 64 W/m2
16:29 15.5 °C 10.3 °C 1006.0 hPa NE 9.7 km/h 23.3 km/h 71% 0.0 mm 57 W/m2
16:34 15.4 °C 9.7 °C 1005.6 hPa NE 9.7 km/h 23.3 km/h 69% 0.0 mm 52 W/m2
16:39 15.2 °C 9.3 °C 1005.6 hPa NE 6.1 km/h 23.3 km/h 68% 0.0 mm 43 W/m2
16:49 15.2 °C 9.6 °C 1005.6 hPa NE 8.7 km/h 18.3 km/h 69% 0.0 mm 47 W/m2
16:54 15.2 °C 9.6 °C 1005.6 hPa ENE 3.5 km/h 18.3 km/h 69% 0.0 mm 43 W/m2
16:59 14.9 °C 9.7 °C 1005.6 hPa NE 3.5 km/h 13.4 km/h 71% 0.0 mm 45 W/m2
17:04 15.1 °C 9.7 °C 1005.6 hPa NNE 1.1 km/h 8.7 km/h 70% 0.0 mm 39 W/m2
17:09 15.1 °C 9.7 °C 1005.6 hPa NE 1.1 km/h 11.1 km/h 70% 0.0 mm 40 W/m2
17:25 14.9 °C 9.9 °C 1005.6 hPa ENE 2.6 km/h 14.8 km/h 72% 0.0 mm 19 W/m2
17:30 14.8 °C 10.2 °C 1005.6 hPa ENE 2.6 km/h 9.7 km/h 74% 0.0 mm 12 W/m2
17:35 14.5 °C 9.9 °C 1005.6 hPa Calm   6.1 km/h 74% 0.0 mm 8 W/m2
17:40 14.6 °C 10.2 °C 1005.6 hPa Calm   5.0 km/h 75% 0.0 mm 7 W/m2
17:45 14.5 °C 10.1 °C 1005.3 hPa Calm   1.1 km/h 75% 0.0 mm 5 W/m2
17:50 14.4 °C 10.1 °C 1005.3 hPa Calm     75% 0.0 mm 3 W/m2
17:55 14.5 °C 10.3 °C 1005.6 hPa Calm     76% 0.0 mm 0 W/m2
18:00 14.2 °C 10.1 °C 1005.3 hPa East 2.6 km/h 5.0 km/h 76% 0.0 mm 0 W/m2
18:05 14.2 °C 10.1 °C 1005.3 hPa ESE 1.1 km/h 6.1 km/h 76% 0.0 mm 0 W/m2
18:10 14.2 °C 10.1 °C 1005.3 hPa ESE 3.5 km/h 6.1 km/h 76% 0.0 mm 0 W/m2
18:15 14.2 °C 10.2 °C 1005.3 hPa Calm   6.1 km/h 77% 0.0 mm 0 W/m2
18:20 14.0 °C 10.2 °C 1005.3 hPa East 1.1 km/h 6.1 km/h 78% 0.0 mm 0 W/m2
18:25 13.9 °C 10.3 °C 1005.3 hPa Calm   3.5 km/h 79% 0.0 mm 0 W/m2
18:30 13.8 °C 10.2 °C 1005.3 hPa Calm   3.5 km/h 79% 0.0 mm 0 W/m2
18:35 13.6 °C 10.1 °C 1005.3 hPa Calm     79% 0.0 mm 0 W/m2
18:40 13.6 °C 10.1 °C 1005.3 hPa Calm     79% 0.0 mm 0 W/m2
18:45 13.6 °C 10.1 °C 1005.3 hPa NNE 5.0 km/h 8.7 km/h 79% 0.0 mm 0 W/m2
18:50 13.8 °C 10.4 °C 1005.6 hPa NE 1.1 km/h 9.7 km/h 80% 0.0 mm 0 W/m2
18:55 14.2 °C 10.4 °C 1005.6 hPa ENE 5.0 km/h 13.4 km/h 78% 0.0 mm 0 W/m2
19:00 14.1 °C 10.3 °C 1005.3 hPa ENE 3.5 km/h 13.4 km/h 78% 0.0 mm 0 W/m2
19:05 14.2 °C 10.4 °C 1005.3 hPa ENE 7.2 km/h 15.8 km/h 78% 0.0 mm 0 W/m2
19:10 14.3 °C 10.3 °C 1005.3 hPa ENE 8.7 km/h 15.8 km/h 77% 0.0 mm 0 W/m2
19:15 14.2 °C 10.2 °C 1005.3 hPa ENE 5.0 km/h 11.1 km/h 77% 0.0 mm 0 W/m2
19:20 14.2 °C 10.4 °C 1005.3 hPa ENE 7.2 km/h 15.8 km/h 78% 0.0 mm 0 W/m2
19:25 14.1 °C 10.3 °C 1005.3 hPa ENE 8.7 km/h 15.8 km/h 78% 0.0 mm 0 W/m2
19:30 14.1 °C 10.3 °C 1005.3 hPa NE 15.8 km/h 18.3 km/h 78% 0.0 mm 0 W/m2
19:35 14.0 °C 10.2 °C 1005.3 hPa NE 8.7 km/h 18.3 km/h 78% 0.0 mm 0 W/m2
19:40 13.6 °C 10.2 °C 1005.3 hPa ENE 7.2 km/h 18.3 km/h 80% 0.0 mm 0 W/m2
19:45 13.5 °C 10.3 °C 1005.3 hPa ENE 3.5 km/h 13.4 km/h 81% 0.0 mm 0 W/m2
19:50 13.5 °C 10.5 °C 1005.3 hPa ENE 3.5 km/h 14.8 km/h 82% 0.0 mm 0 W/m2
19:55 13.1 °C 10.1 °C 1005.3 hPa ENE 2.6 km/h 14.8 km/h 82% 0.0 mm 0 W/m2
20:00 13.4 °C 10.6 °C 1005.3 hPa NE 2.6 km/h 8.7 km/h 83% 0.0 mm 0 W/m2
20:06 13.4 °C 10.6 °C 1005.3 hPa ENE 2.6 km/h 8.7 km/h 83% 0.0 mm 0 W/m2
20:11 13.1 °C 10.4 °C 1005.3 hPa NE 3.5 km/h 9.7 km/h 84% 0.0 mm 0 W/m2
20:13 13.4 °C 10.8 °C 1005.3 hPa NE 7.2 km/h 14.8 km/h 84% 0.0 mm 0 W/m2
20:18 13.5 °C 10.8 °C 1005.3 hPa NE 6.1 km/h 14.8 km/h 84% 0.0 mm 0 W/m2
20:23 13.2 °C 10.6 °C 1005.3 hPa NE 7.2 km/h 15.8 km/h 84% 0.0 mm 0 W/m2
20:28 13.4 °C 10.9 °C 1005.3 hPa NE 7.2 km/h 15.8 km/h 85% 0.0 mm 0 W/m2
20:33 13.2 °C 10.7 °C 1005.3 hPa ENE 3.5 km/h 12.2 km/h 85% 0.0 mm 0 W/m2
20:38 13.1 °C 10.8 °C 1005.3 hPa ENE 5.0 km/h 9.7 km/h 86% 0.0 mm 0 W/m2
20:43 13.4 °C 11.1 °C 1005.0 hPa NE 3.5 km/h 8.7 km/h 86% 0.0 mm 0 W/m2
20:48 12.9 °C 10.6 °C 1005.3 hPa NNE 2.6 km/h 7.2 km/h 86% 0.0 mm 0 W/m2
20:53 12.9 °C 10.6 °C 1005.0 hPa North 7.2 km/h 13.4 km/h 86% 0.0 mm 0 W/m2
20:59 12.7 °C 10.2 °C 1005.3 hPa North 3.5 km/h 15.8 km/h 85% 0.0 mm 0 W/m2
21:04 13.0 °C 10.7 °C 1005.3 hPa NNE 5.0 km/h 15.8 km/h 86% 0.0 mm 0 W/m2
21:09 13.1 °C 10.8 °C 1005.3 hPa NNE 7.2 km/h 15.8 km/h 86% 0.0 mm 0 W/m2
21:14 13.2 °C 10.7 °C 1005.3 hPa NNE 3.5 km/h 15.8 km/h 85% 0.0 mm 0 W/m2
21:19 13.6 °C 11.1 °C 1005.3 hPa NNE 11.1 km/h 19.5 km/h 85% 0.0 mm 0 W/m2
21:24 13.4 °C 10.9 °C 1005.3 hPa NNE 8.7 km/h 21.9 km/h 85% 0.0 mm 0 W/m2
21:29 13.4 °C 10.9 °C 1005.3 hPa NNE 7.2 km/h 21.9 km/h 85% 0.0 mm 0 W/m2
21:34 13.3 °C 10.8 °C 1005.3 hPa NNE 6.1 km/h 14.8 km/h 85% 0.0 mm 0 W/m2
21:50 13.3 °C 10.8 °C 1005.6 hPa North 6.1 km/h 15.8 km/h 85% 0.0 mm 0 W/m2
21:55 13.6 °C 11.1 °C 1005.6 hPa NNW 11.1 km/h 18.3 km/h 85% 0.0 mm 0 W/m2
22:00 13.3 °C 10.8 °C 1005.6 hPa North 8.7 km/h 18.3 km/h 85% 0.0 mm 0 W/m2
22:05 13.2 °C 10.7 °C 1005.6 hPa North 7.2 km/h 18.3 km/h 85% 0.0 mm 0 W/m2
22:10 13.1 °C 10.8 °C 1005.6 hPa North 7.2 km/h 18.3 km/h 86% 0.0 mm 0 W/m2
22:15 12.9 °C 10.4 °C 1005.6 hPa NW 5.0 km/h 14.8 km/h 85% 0.0 mm 0 W/m2
22:20 12.8 °C 10.3 °C 1005.3 hPa NNW 7.2 km/h 14.8 km/h 85% 0.0 mm 0 W/m2
22:25 12.8 °C 10.3 °C 1005.3 hPa North 7.2 km/h 11.1 km/h 85% 0.0 mm 0 W/m2
22:31 12.6 °C 10.2 °C 1005.3 hPa North 2.6 km/h 13.4 km/h 85% 0.0 mm 0 W/m2
22:36 12.9 °C 10.3 °C 1005.3 hPa North 8.7 km/h 13.4 km/h 84% 0.0 mm 0 W/m2
22:41 12.9 °C 10.3 °C 1005.6 hPa North 11.1 km/h 17.2 km/h 84% 0.0 mm 0 W/m2
22:46 12.9 °C 10.1 °C 1005.6 hPa North 9.7 km/h 17.2 km/h 83% 0.0 mm 0 W/m2
22:51 12.7 °C 9.9 °C 1005.3 hPa North 5.0 km/h 15.8 km/h 83% 0.0 mm 0 W/m2
22:56 12.9 °C 10.1 °C 1005.3 hPa North 3.5 km/h 13.4 km/h 83% 0.0 mm 0 W/m2
23:01 12.7 °C 10.1 °C 1005.3 hPa NNW 6.1 km/h 9.7 km/h 84% 0.0 mm 0 W/m2
23:06 12.6 °C 10.2 °C 1005.3 hPa NW 8.7 km/h 13.4 km/h 85% 0.0 mm 0 W/m2
23:11 12.8 °C 10.3 °C 1005.3 hPa NNW 7.2 km/h 13.4 km/h 85% 0.0 mm 0 W/m2
23:16 12.7 °C 10.1 °C 1005.3 hPa NNW 8.7 km/h 13.4 km/h 84% 0.0 mm 0 W/m2
23:21 12.7 °C 10.1 °C 1005.3 hPa NNW 6.1 km/h 13.4 km/h 84% 0.0 mm 0 W/m2
23:26 12.6 °C 9.9 °C 1005.6 hPa NNW 3.5 km/h 11.1 km/h 84% 0.0 mm 0 W/m2
23:31 12.4 °C 9.8 °C 1005.3 hPa NW 3.5 km/h 9.7 km/h 84% 0.0 mm 0 W/m2
23:36 12.3 °C 9.7 °C 1005.3 hPa NW 5.0 km/h 8.7 km/h 84% 0.0 mm 0 W/m2
23:41 12.0 °C 9.6 °C 1005.3 hPa WNW 3.5 km/h 7.2 km/h 85% 0.0 mm 0 W/m2
23:46 11.8 °C 9.7 °C 1005.6 hPa WNW 1.1 km/h 7.2 km/h 87% 0.0 mm 0 W/m2
23:51 11.7 °C 9.9 °C 1005.3 hPa NW 3.5 km/h 7.2 km/h 89% 0.0 mm 0 W/m2
23:56 11.6 °C 10.0 °C 1005.3 hPa NW 5.0 km/h 8.7 km/h 90% 0.0 mm 0 W/m2
Northern Hawkes Bay. New Zealand Historic Data
Compliments of Weather Underground - 2 mb